createdAt,value
2018-07-27T00:00:25.542Z,2.87
2018-07-27T00:02:54.866Z,3.05
2018-07-27T00:05:24.050Z,3.55
2018-07-27T00:07:52.819Z,4.35
2018-07-27T00:10:21.961Z,3.95
2018-07-27T00:12:50.845Z,3.92
2018-07-27T00:15:19.829Z,3.50
2018-07-27T00:17:48.903Z,4.12
2018-07-27T00:20:17.840Z,3.72
2018-07-27T00:22:46.766Z,3.58
2018-07-27T00:25:16.204Z,3.60
2018-07-27T00:27:45.082Z,3.75
2018-07-27T00:30:13.818Z,4.00
2018-07-27T00:32:42.623Z,4.12
2018-07-27T00:35:11.451Z,4.67
2018-07-27T00:37:40.206Z,4.70
2018-07-27T00:40:08.907Z,4.10
2018-07-27T00:42:37.548Z,4.85
2018-07-27T00:45:06.821Z,4.50
2018-07-27T00:47:36.127Z,4.30
2018-07-27T00:50:05.102Z,4.22
2018-07-27T00:52:34.104Z,4.90
2018-07-27T00:55:03.103Z,4.50
2018-07-27T00:57:32.078Z,4.65
2018-07-27T01:00:01.085Z,4.87
2018-07-27T01:02:30.367Z,5.40
2018-07-27T01:04:59.266Z,5.70
2018-07-27T01:07:28.250Z,4.95
2018-07-27T01:09:57.424Z,4.72
2018-07-27T01:12:26.348Z,4.87
2018-07-27T01:14:55.246Z,5.55
2018-07-27T01:17:24.272Z,5.15
2018-07-27T01:19:53.240Z,5.08
2018-07-27T01:22:22.120Z,4.92
2018-07-27T01:24:51.507Z,4.83
2018-07-27T01:27:20.408Z,5.28
2018-07-27T01:29:49.477Z,5.40
2018-07-27T01:32:18.727Z,4.97
2018-07-27T01:34:47.613Z,5.33
2018-07-27T01:37:17.298Z,5.10
2018-07-27T01:39:46.235Z,4.58
2018-07-27T01:42:15.052Z,4.65
2018-07-27T01:44:43.978Z,5.65
2018-07-27T01:47:13.202Z,9.05
2018-07-27T01:49:42.248Z,7.25
2018-07-27T01:52:11.379Z,7.50
2018-07-27T01:54:40.514Z,6.15
2018-07-27T01:57:09.354Z,6.90
2018-07-27T01:59:38.237Z,7.72
2018-07-27T02:02:07.386Z,7.42
2018-07-27T02:04:36.246Z,6.97
2018-07-27T02:07:05.335Z,7.70
2018-07-27T02:09:34.420Z,7.67
2018-07-27T02:12:03.087Z,7.67
2018-07-27T02:14:32.058Z,7.85
2018-07-27T02:17:01.135Z,8.65
2018-07-27T02:19:30.167Z,8.23
2018-07-27T02:21:58.974Z,10.13
2018-07-27T02:24:27.935Z,10.08
2018-07-27T02:26:56.948Z,8.75
2018-07-27T02:29:25.650Z,8.30
2018-07-27T02:31:54.582Z,7.97
2018-07-27T02:34:23.319Z,7.03
2018-07-27T02:36:52.143Z,9.55
2018-07-27T02:39:21.460Z,9.93
2018-07-27T02:41:50.305Z,10.82
2018-07-27T02:44:19.171Z,10.98
2018-07-27T02:46:48.287Z,8.90
2018-07-27T02:49:17.191Z,9.43
2018-07-27T02:51:46.098Z,8.80
2018-07-27T02:54:15.258Z,9.70
2018-07-27T02:56:44.276Z,9.93
2018-07-27T02:59:13.060Z,9.40
2018-07-27T03:01:42.285Z,8.68
2018-07-27T03:04:11.104Z,8.43
2018-07-27T03:06:39.855Z,8.53
2018-07-27T03:09:11.016Z,9.83
2018-07-27T03:11:40.559Z,11.88
2018-07-27T03:14:09.479Z,12.53
2018-07-27T03:16:38.422Z,12.30
2018-07-27T03:19:07.377Z,12.00
2018-07-27T03:21:36.178Z,11.75
2018-07-27T03:24:05.330Z,11.53
2018-07-27T03:26:34.135Z,12.20
2018-07-27T03:29:02.971Z,10.60
2018-07-27T03:31:32.021Z,10.15
2018-07-27T03:34:00.882Z,11.18
2018-07-27T03:36:29.807Z,10.25
2018-07-27T03:38:58.652Z,10.80
2018-07-27T03:41:27.564Z,9.90
2018-07-27T03:43:56.384Z,9.90
2018-07-27T03:46:25.274Z,9.10
2018-07-27T03:48:54.442Z,10.00
2018-07-27T03:51:23.426Z,9.55
2018-07-27T03:53:52.263Z,9.65
2018-07-27T03:56:21.142Z,10.75
2018-07-27T03:58:50.103Z,9.85
2018-07-27T04:01:19.631Z,10.35
2018-07-27T04:03:49.969Z,10.78
2018-07-27T04:06:18.939Z,10.75
2018-07-27T04:08:48.021Z,10.03
2018-07-27T04:11:16.875Z,9.40
2018-07-27T04:13:45.660Z,10.70
2018-07-27T04:16:14.451Z,9.73
2018-07-27T04:18:43.123Z,11.05
2018-07-27T04:21:12.148Z,9.20
2018-07-27T04:23:41.550Z,8.68
2018-07-27T04:26:10.524Z,8.60
2018-07-27T04:28:39.940Z,8.65
2018-07-27T04:31:08.759Z,11.45
2018-07-27T04:33:37.718Z,10.88
2018-07-27T04:36:07.778Z,8.73
2018-07-27T04:38:37.264Z,9.35
2018-07-27T04:41:06.233Z,8.40
2018-07-27T04:43:35.238Z,7.55
2018-07-27T04:46:04.255Z,7.50
2018-07-27T04:48:33.744Z,7.12
2018-07-27T04:51:02.524Z,10.93
2018-07-27T04:53:31.363Z,8.60
2018-07-27T04:56:00.504Z,9.20
2018-07-27T04:58:29.878Z,8.50
2018-07-27T05:00:59.851Z,9.63
2018-07-27T05:03:28.843Z,10.20
2018-07-27T05:05:58.040Z,9.78
2018-07-27T05:08:27.875Z,9.40
2018-07-27T05:10:57.943Z,8.93
2018-07-27T05:13:28.055Z,11.08
2018-07-27T05:15:57.108Z,10.25
2018-07-27T05:18:26.177Z,11.03
2018-07-27T05:20:55.662Z,10.10
2018-07-27T05:23:24.749Z,11.35
2018-07-27T05:25:54.963Z,10.20
2018-07-27T05:28:23.990Z,10.50
2018-07-27T05:30:52.807Z,11.50
2018-07-27T05:33:22.848Z,12.45
2018-07-27T05:35:52.274Z,9.83
2018-07-27T05:38:21.197Z,11.08
2018-07-27T05:40:50.196Z,11.28
2018-07-27T05:43:18.992Z,9.98
2018-07-27T05:45:48.016Z,11.95
2018-07-27T05:48:16.869Z,10.68
2018-07-27T05:50:46.267Z,13.25
2018-07-27T05:53:15.370Z,13.62
2018-07-27T05:55:44.368Z,11.18
2018-07-27T05:58:13.268Z,12.45
2018-07-27T06:00:42.325Z,12.75
2018-07-27T06:03:11.172Z,11.43
2018-07-27T06:05:40.246Z,12.40
2018-07-27T06:08:09.421Z,10.05
2018-07-27T06:10:38.851Z,13.00
2018-07-27T06:13:07.960Z,11.38
2018-07-27T06:15:37.141Z,12.05
2018-07-27T06:18:06.200Z,11.03
2018-07-27T06:20:35.331Z,10.05
2018-07-27T06:23:04.878Z,10.43
2018-07-27T06:25:33.781Z,9.80
2018-07-27T06:28:02.533Z,12.60
2018-07-27T06:30:32.576Z,11.60
2018-07-27T06:33:01.543Z,11.10
2018-07-27T06:35:31.099Z,10.40
2018-07-27T06:38:00.347Z,10.72
2018-07-27T06:40:29.958Z,11.22
2018-07-27T06:42:58.752Z,9.95
2018-07-27T06:45:28.267Z,10.72
2018-07-27T06:47:57.157Z,10.23
2018-07-27T06:50:26.035Z,9.70
2018-07-27T06:52:55.043Z,8.50
2018-07-27T06:55:23.986Z,8.85
2018-07-27T06:57:53.311Z,9.03
2018-07-27T07:00:22.652Z,8.73
2018-07-27T07:02:51.524Z,8.70
2018-07-27T07:05:20.527Z,9.50
2018-07-27T07:07:49.974Z,10.38
2018-07-27T07:10:19.229Z,9.78
2018-07-27T07:12:48.486Z,9.73
2018-07-27T07:15:17.458Z,10.48
2018-07-27T07:17:47.380Z,10.98
2018-07-27T07:20:16.935Z,9.80
2018-07-27T07:22:46.166Z,9.58
2018-07-27T07:25:15.960Z,10.20
2018-07-27T07:27:44.827Z,9.33
2018-07-27T07:30:14.075Z,9.43
2018-07-27T07:32:43.247Z,10.05
2018-07-27T07:35:12.179Z,11.03
2018-07-27T07:37:41.200Z,10.95
2018-07-27T07:40:10.765Z,10.82
2018-07-27T07:42:39.935Z,10.75
2018-07-27T07:45:09.447Z,10.18
2018-07-27T07:47:38.237Z,10.08
2018-07-27T07:50:07.332Z,10.10
2018-07-27T07:52:36.532Z,10.85
2018-07-27T07:55:05.426Z,10.15
2018-07-27T07:57:34.521Z,9.30
2018-07-27T08:00:03.951Z,8.90
2018-07-27T08:02:32.815Z,9.63
2018-07-27T08:05:01.990Z,9.70
2018-07-27T08:07:31.860Z,9.43
2018-07-27T08:10:00.943Z,9.68
2018-07-27T08:12:30.341Z,9.80
2018-07-27T08:14:59.759Z,10.75
2018-07-27T08:17:28.736Z,8.18
2018-07-27T08:19:58.139Z,9.25
2018-07-27T08:22:27.735Z,9.30
2018-07-27T08:24:56.557Z,9.15
2018-07-27T08:27:25.733Z,8.45
2018-07-27T08:29:55.218Z,8.73
2018-07-27T08:32:24.453Z,8.98
2018-07-27T08:34:53.728Z,10.40
2018-07-27T08:37:23.661Z,8.75
2018-07-27T08:39:52.959Z,8.60
2018-07-27T08:42:22.072Z,9.43
2018-07-27T08:44:51.532Z,8.85
2018-07-27T08:47:20.407Z,8.68
2018-07-27T08:49:49.418Z,8.43
2018-07-27T08:52:18.639Z,9.90
2018-07-27T08:54:47.631Z,9.15
2018-07-27T08:57:16.621Z,8.53
2018-07-27T08:59:46.251Z,8.15
2018-07-27T09:02:15.315Z,7.87
2018-07-27T09:04:44.420Z,8.43
2018-07-27T09:07:14.138Z,8.90
2018-07-27T09:09:43.215Z,8.38
2018-07-27T09:12:12.114Z,8.40
2018-07-27T09:14:41.557Z,7.87
2018-07-27T09:17:10.825Z,7.90
2018-07-27T09:19:40.224Z,8.45
2018-07-27T09:22:09.651Z,7.50
2018-07-27T09:24:38.568Z,8.58
2018-07-27T09:27:07.721Z,9.80
2018-07-27T09:29:38.259Z,7.20
2018-07-27T09:32:07.355Z,7.72
2018-07-27T09:34:36.649Z,7.03
2018-07-27T09:37:06.015Z,7.92
2018-07-27T09:39:35.155Z,7.55
2018-07-27T09:42:04.403Z,7.40
2018-07-27T09:44:34.741Z,7.47
2018-07-27T09:47:04.080Z,5.85
2018-07-27T09:49:33.050Z,7.00
2018-07-27T09:52:02.212Z,6.62
2018-07-27T09:54:31.369Z,6.10
2018-07-27T09:57:00.222Z,5.60
2018-07-27T09:59:29.567Z,6.90
2018-07-27T10:01:58.964Z,5.75
2018-07-27T10:04:29.109Z,5.90
2018-07-27T10:06:58.360Z,6.05
2018-07-27T10:09:27.429Z,5.58
2018-07-27T10:11:56.643Z,5.10
2018-07-27T10:14:26.070Z,4.90
2018-07-27T10:16:55.182Z,4.67
2018-07-27T10:19:24.664Z,5.00
2018-07-27T10:21:54.223Z,15.50
2018-07-27T10:24:23.207Z,8.60
2018-07-27T10:26:52.586Z,6.17
2018-07-27T10:29:21.839Z,5.70
2018-07-27T10:31:51.030Z,5.97
2018-07-27T10:34:20.160Z,5.55
2018-07-27T10:36:49.835Z,6.53
2018-07-27T10:39:19.526Z,6.25
2018-07-27T10:41:49.376Z,5.75
2018-07-27T10:44:18.947Z,4.90
2018-07-27T10:46:48.272Z,4.72
2018-07-27T10:49:17.500Z,5.22
2018-07-27T10:51:46.840Z,4.10
2018-07-27T10:54:16.292Z,4.87
2018-07-27T10:56:45.559Z,4.83
2018-07-27T10:59:15.220Z,4.85
2018-07-27T11:01:44.269Z,3.83
2018-07-27T11:04:13.466Z,3.77
2018-07-27T11:06:42.682Z,3.98
2018-07-27T11:09:12.003Z,3.87
2018-07-27T11:11:41.787Z,4.47
2018-07-27T11:14:11.116Z,4.78
2018-07-27T11:16:40.639Z,3.70
2018-07-27T11:19:09.834Z,2.15
2018-07-27T11:21:39.395Z,2.35
2018-07-27T11:24:08.695Z,3.27
2018-07-27T11:26:38.096Z,3.42
2018-07-27T11:29:07.653Z,2.25
2018-07-27T11:31:37.850Z,3.17
2018-07-27T11:34:07.102Z,3.10
2018-07-27T11:36:36.296Z,3.00
2018-07-27T11:39:08.431Z,2.60
2018-07-27T11:41:37.922Z,3.02
2018-07-27T11:44:07.227Z,2.50
2018-07-27T11:46:36.431Z,1.87
2018-07-27T11:49:05.715Z,2.65
2018-07-27T11:51:35.339Z,2.58
2018-07-27T11:54:04.515Z,2.83
2018-07-27T11:56:34.342Z,2.50
2018-07-27T11:59:03.734Z,1.92
2018-07-27T12:01:33.466Z,2.17
2018-07-27T12:04:03.225Z,2.92
2018-07-27T12:06:39.044Z,3.25
2018-07-27T12:09:10.873Z,3.65
2018-07-27T12:11:40.036Z,2.60
2018-07-27T12:14:10.225Z,2.52
2018-07-27T12:16:39.407Z,3.12
2018-07-27T12:19:08.839Z,3.72
2018-07-27T12:21:38.447Z,3.90
2018-07-27T12:24:07.586Z,3.65
2018-07-27T12:26:36.807Z,3.72
2018-07-27T12:29:06.108Z,4.40
2018-07-27T12:31:35.814Z,4.17
2018-07-27T12:34:04.927Z,5.67
2018-07-27T12:36:34.219Z,3.45
2018-07-27T12:39:03.564Z,3.95
2018-07-27T12:41:32.731Z,3.12
2018-07-27T12:44:01.691Z,3.58
2018-07-27T12:46:31.578Z,3.37
2018-07-27T12:49:00.613Z,3.37
2018-07-27T12:51:29.904Z,3.85
2018-07-27T12:53:59.035Z,1.42
2018-07-27T12:56:28.448Z,2.10
2018-07-27T12:58:57.516Z,1.52
2018-07-27T13:01:26.883Z,1.05
2018-07-27T13:03:56.024Z,1.37
2018-07-27T13:06:25.835Z,1.10
2018-07-27T13:08:55.485Z,0.90
2018-07-27T13:11:24.622Z,0.85
2018-07-27T13:13:53.706Z,0.60
2018-07-27T13:16:22.752Z,0.80
2018-07-27T13:18:51.815Z,0.90
2018-07-27T13:21:20.635Z,1.75
2018-07-27T13:23:55.196Z,0.70
2018-07-27T13:26:24.466Z,0.70
2018-07-27T13:28:53.634Z,0.60
2018-07-27T13:31:58.947Z,0.88
2018-07-27T13:34:41.918Z,0.80
2018-07-27T13:37:11.763Z,0.70
2018-07-27T13:39:42.118Z,0.93
2018-07-27T13:42:12.609Z,0.53
2018-07-27T13:44:42.152Z,0.60
2018-07-27T13:47:12.214Z,0.80
2018-07-27T13:49:41.346Z,0.60
2018-07-27T13:52:10.900Z,0.50
2018-07-27T13:54:40.527Z,0.40
2018-07-27T13:57:09.636Z,0.47
2018-07-27T13:59:38.900Z,0.40
2018-07-27T14:02:08.050Z,0.50
2018-07-27T14:04:37.327Z,0.70
2018-07-27T14:07:07.186Z,3.85
2018-07-27T14:09:36.235Z,4.20
2018-07-27T14:12:05.315Z,4.62
2018-07-27T14:14:35.405Z,4.17
2018-07-27T14:17:04.645Z,4.78
2018-07-27T14:19:34.463Z,4.72
2018-07-27T14:22:05.116Z,3.60
2018-07-27T14:24:34.406Z,4.53
2018-07-27T14:27:03.603Z,4.80
2018-07-27T14:29:33.815Z,5.12
2018-07-27T14:32:03.550Z,5.92
2018-07-27T14:34:32.370Z,5.62
2018-07-27T14:37:02.064Z,5.70
2018-07-27T14:39:31.182Z,5.33
2018-07-27T14:42:00.736Z,5.45
2018-07-27T14:44:30.892Z,5.10
2018-07-27T14:47:00.284Z,5.47
2018-07-27T14:49:29.871Z,4.62
2018-07-27T14:51:59.926Z,5.17
2018-07-27T14:54:28.878Z,4.87
2018-07-27T14:56:58.079Z,4.53
2018-07-27T14:59:27.615Z,4.28
2018-07-27T15:01:56.560Z,6.25
2018-07-27T15:04:25.642Z,4.22
2018-07-27T15:06:54.758Z,4.37
2018-07-27T15:09:24.377Z,5.65
2018-07-27T15:11:53.887Z,3.75
2018-07-27T15:14:22.725Z,4.20
2018-07-27T15:16:51.768Z,3.42
2018-07-27T15:19:20.653Z,4.08
2018-07-27T15:21:49.790Z,4.78
2018-07-27T15:24:18.785Z,4.42
2018-07-27T15:26:47.469Z,5.33
2018-07-27T15:29:16.762Z,6.25
2018-07-27T15:32:16.562Z,5.67
2018-07-27T15:34:45.778Z,6.00
2018-07-27T15:37:15.758Z,7.25
2018-07-27T15:39:44.742Z,8.15
2018-07-27T15:42:13.791Z,6.35
2018-07-27T15:44:43.784Z,7.00
2018-07-27T15:47:13.334Z,6.50
2018-07-27T15:49:42.328Z,5.83
2018-07-27T15:52:11.434Z,7.35
2018-07-27T15:54:40.358Z,8.80
2018-07-27T15:57:10.129Z,7.35
2018-07-27T15:59:39.197Z,8.68
2018-07-27T16:02:08.385Z,8.18
2018-07-27T16:04:37.426Z,7.80
2018-07-27T16:07:06.543Z,6.33
2018-07-27T16:09:38.657Z,6.42
2018-07-27T16:12:07.731Z,5.30
2018-07-27T16:14:36.712Z,5.25
2018-07-27T16:17:06.159Z,5.60
2018-07-27T16:19:34.985Z,5.85
2018-07-27T16:22:04.108Z,7.15
2018-07-27T16:24:33.155Z,6.03
2018-07-27T16:27:02.059Z,6.70
2018-07-27T16:29:30.910Z,6.80
2018-07-27T16:32:00.465Z,5.20
2018-07-27T16:34:29.755Z,6.83
2018-07-27T16:36:58.633Z,6.42
2018-07-27T16:39:27.742Z,5.80
2018-07-27T16:41:56.599Z,5.65
2018-07-27T16:44:25.281Z,5.62
2018-07-27T16:46:54.683Z,5.42
2018-07-27T16:49:23.778Z,6.75
2018-07-27T16:51:53.084Z,7.00
2018-07-27T16:54:21.986Z,6.05
2018-07-27T16:56:51.395Z,6.40
2018-07-27T16:59:20.444Z,6.10
2018-07-27T17:01:49.773Z,7.08
2018-07-27T17:04:19.006Z,7.15
2018-07-27T17:06:47.763Z,7.25
2018-07-27T17:09:17.271Z,6.60
2018-07-27T17:11:46.231Z,7.05
2018-07-27T17:14:15.047Z,5.05
2018-07-27T17:16:44.379Z,4.58
2018-07-27T17:19:13.150Z,3.95
2018-07-27T17:21:42.011Z,3.52
2018-07-27T17:24:11.348Z,4.12
2018-07-27T17:26:40.198Z,3.87
2018-07-27T17:29:09.322Z,4.53
2018-07-27T17:31:38.711Z,4.22
2018-07-27T17:34:07.830Z,3.75
2018-07-27T17:36:36.835Z,3.72
2018-07-27T17:39:09.243Z,3.90
2018-07-27T17:41:38.695Z,3.65
2018-07-27T17:44:08.002Z,3.58
2018-07-27T17:46:38.135Z,3.65
2018-07-27T17:49:07.768Z,4.05
2018-07-27T17:51:36.720Z,30.57
2018-07-27T17:54:05.695Z,5.28
2018-07-27T17:56:34.715Z,5.53
2018-07-27T17:59:04.634Z,6.40
2018-07-27T18:01:33.470Z,5.55
2018-07-27T18:04:02.412Z,5.58
2018-07-27T18:06:32.131Z,7.15
2018-07-27T18:09:01.160Z,8.05
2018-07-27T18:11:30.036Z,8.28
2018-07-27T18:13:58.808Z,11.53
2018-07-27T18:16:28.239Z,7.20
2018-07-27T18:18:57.322Z,5.87
2018-07-27T18:21:26.191Z,7.03
2018-07-27T18:23:55.511Z,7.40
2018-07-27T18:26:24.272Z,7.15
2018-07-27T18:28:53.907Z,9.23
2018-07-27T18:31:22.998Z,7.53
2018-07-27T18:33:52.101Z,8.68
2018-07-27T18:36:20.889Z,6.83
2018-07-27T18:38:49.547Z,6.15
2018-07-27T18:41:18.468Z,7.37
2018-07-27T18:43:47.328Z,6.40
2018-07-27T18:46:16.568Z,7.12
2018-07-27T18:48:46.284Z,7.55
2018-07-27T18:51:15.758Z,7.20
2018-07-27T18:53:44.999Z,9.25
2018-07-27T18:56:14.016Z,6.10
2018-07-27T18:58:43.176Z,6.72
2018-07-27T19:01:12.679Z,5.87
2018-07-27T19:03:41.668Z,6.65
2018-07-27T19:06:10.775Z,7.05
2018-07-27T19:08:39.870Z,7.42
2018-07-27T19:11:09.036Z,7.05
2018-07-27T19:13:38.587Z,7.12
2018-07-27T19:16:08.082Z,6.70
2018-07-27T19:18:37.090Z,7.17
2018-07-27T19:21:05.963Z,7.08
2018-07-27T19:23:35.016Z,6.78
2018-07-27T19:26:03.946Z,6.40
2018-07-27T19:28:33.278Z,5.85
2018-07-27T19:31:02.368Z,6.33
2018-07-27T19:33:31.446Z,5.62
2018-07-27T19:36:00.450Z,5.10
2018-07-27T19:38:29.533Z,5.42
2018-07-27T19:40:58.850Z,5.55
2018-07-27T19:43:28.975Z,6.37
2018-07-27T19:45:57.839Z,6.50
2018-07-27T19:48:26.867Z,6.72
2018-07-27T19:50:56.788Z,7.22
2018-07-27T19:53:25.959Z,7.17
2018-07-27T19:55:55.005Z,7.28
2018-07-27T19:58:24.391Z,7.35
2018-07-27T20:00:53.597Z,7.00
2018-07-27T20:03:22.393Z,6.78
2018-07-27T20:05:51.626Z,7.95
2018-07-27T20:08:20.384Z,7.55
2018-07-27T20:10:49.173Z,7.30
2018-07-27T20:13:18.274Z,7.10
2018-07-27T20:15:47.331Z,6.58
2018-07-27T20:18:16.235Z,6.53
2018-07-27T20:20:46.303Z,6.53
2018-07-27T20:23:16.102Z,5.75
2018-07-27T20:25:45.159Z,5.55
2018-07-27T20:28:15.005Z,5.35
2018-07-27T20:30:43.822Z,5.22
2018-07-27T20:33:12.881Z,5.75
2018-07-27T20:35:42.035Z,5.20
2018-07-27T20:38:11.003Z,6.47
2018-07-27T20:40:39.665Z,6.10
2018-07-27T20:43:08.834Z,6.00
2018-07-27T20:45:37.819Z,7.55
2018-07-27T20:48:06.998Z,9.55
2018-07-27T20:50:36.360Z,8.55
2018-07-27T20:53:05.704Z,7.55
2018-07-27T20:55:34.900Z,7.90
2018-07-27T20:58:04.056Z,6.90
2018-07-27T21:00:34.083Z,6.92
2018-07-27T21:03:03.037Z,7.47
2018-07-27T21:05:32.755Z,6.60
2018-07-27T21:08:02.711Z,6.53
2018-07-27T21:10:31.728Z,6.33
2018-07-27T21:13:00.693Z,6.92
2018-07-27T21:15:30.671Z,6.22
2018-07-27T21:17:59.459Z,6.10
2018-07-27T21:20:28.641Z,7.03
2018-07-27T21:22:57.836Z,6.42
2018-07-27T21:25:26.788Z,6.65
2018-07-27T21:27:55.832Z,5.67
2018-07-27T21:30:25.132Z,6.22
2018-07-27T21:32:54.203Z,5.83
2018-07-27T21:35:23.311Z,6.20
2018-07-27T21:37:52.795Z,6.92
2018-07-27T21:40:21.574Z,6.42
2018-07-27T21:42:50.715Z,5.78
2018-07-27T21:45:19.662Z,5.72
2018-07-27T21:47:48.882Z,6.47
2018-07-27T21:50:18.121Z,6.37
2018-07-27T21:52:46.875Z,5.85
2018-07-27T21:55:15.924Z,5.67
2018-07-27T21:57:45.540Z,5.97
2018-07-27T22:00:14.248Z,5.50
2018-07-27T22:02:43.206Z,6.78
2018-07-27T22:05:12.482Z,6.45
2018-07-27T22:07:41.716Z,5.40
2018-07-27T22:10:11.548Z,6.15
2018-07-27T22:12:40.752Z,6.15
2018-07-27T22:15:14.511Z,5.70
2018-07-27T22:17:43.607Z,5.58
2018-07-27T22:20:12.429Z,5.45
2018-07-27T22:22:41.835Z,5.85
2018-07-27T22:25:11.719Z,9.85
2018-07-27T22:27:40.571Z,5.28
2018-07-27T22:30:10.735Z,5.00
2018-07-27T22:32:39.915Z,5.08
2018-07-27T22:35:09.013Z,5.70
2018-07-27T22:37:39.198Z,6.10
2018-07-27T22:40:09.669Z,5.30
2018-07-27T22:42:38.535Z,5.85
2018-07-27T22:45:08.759Z,5.20
2018-07-27T22:47:37.826Z,5.12
2018-07-27T22:50:07.478Z,6.72
2018-07-27T22:52:38.518Z,5.75
2018-07-27T22:55:09.974Z,6.50
2018-07-27T22:57:39.543Z,6.70
2018-07-27T23:00:10.535Z,6.30
2018-07-27T23:02:40.675Z,7.10
2018-07-27T23:05:09.667Z,7.17
2018-07-27T23:07:38.769Z,7.03
2018-07-27T23:10:09.321Z,7.35
2018-07-27T23:12:38.686Z,7.65
2018-07-27T23:15:09.370Z,7.97
2018-07-27T23:17:38.715Z,8.15
2018-07-27T23:20:10.661Z,7.70
2018-07-27T23:22:39.889Z,8.08
2018-07-27T23:25:09.158Z,8.73
2018-07-27T23:27:38.244Z,8.75
2018-07-27T23:30:09.409Z,8.53
2018-07-27T23:32:38.190Z,9.88
2018-07-27T23:35:07.165Z,9.90
2018-07-27T23:37:36.305Z,10.70
2018-07-27T23:40:06.072Z,9.70
2018-07-27T23:42:35.266Z,10.15
2018-07-27T23:45:04.397Z,9.58
2018-07-27T23:47:33.467Z,10.03
2018-07-27T23:50:02.595Z,10.50
2018-07-27T23:52:31.503Z,11.20
2018-07-27T23:55:00.155Z,11.68
2018-07-27T23:57:29.060Z,11.40
2018-07-27T23:59:57.983Z,11.22
